Time;durP1;ratioP1;P1;durP2;ratioP2;P2;SDS_P1;SDS_P2;PMS_P1;PMS_P2;Temp;Humidity;BMP_temperature;BMP_pressure;BME280_temperature;BME280_humidity;BME280_pressure;Samples;Min_cycle;Max_cycle;Signal;HPM_P1;HPM_P2
2023/05/12 00:00:38;;;;;;;26.05;21.75;;;;;;;14.23;100.00;100195.84;5024285;28;21080;-71
2023/05/12 00:03:04;;;;;;;6.53;5.93;;;;;;;14.26;100.00;100208.06;5016475;28;20022;-71
2023/05/12 00:05:30;;;;;;;823.35;92.57;;;;;;;14.22;100.00;100196.06;5022855;28;20033;-73
2023/05/12 00:07:55;;;;;;;18.55;12.00;;;;;;;14.20;100.00;100208.84;5018085;28;20033;-74
2023/05/12 00:10:21;;;;;;;937.53;103.87;;;;;;;14.18;100.00;100200.16;5019279;28;20044;-72
2023/05/12 00:12:47;;;;;;;11.53;10.07;;;;;;;14.23;100.00;100190.47;5018347;28;20386;-73
2023/05/12 00:15:12;;;;;;;268.23;47.92;;;;;;;14.20;100.00;100180.13;5019069;28;20464;-73
2023/05/12 00:17:38;;;;;;;249.35;57.42;;;;;;;14.15;100.00;100099.38;5005269;28;20339;-73
2023/05/12 00:20:04;;;;;;;167.63;31.10;;;;;;;14.14;100.00;100127.25;5017326;28;20029;-73
2023/05/12 00:22:30;;;;;;;83.75;14.25;;;;;;;14.18;100.00;100119.63;5037667;28;20472;-71
2023/05/12 00:24:55;;;;;;;115.43;30.17;;;;;;;14.17;100.00;100120.66;5037726;28;20051;-73
2023/05/12 00:27:21;;;;;;;8.65;6.43;;;;;;;14.19;100.00;100122.13;5021446;28;20194;-72
2023/05/12 00:29:46;;;;;;;8.50;6.23;;;;;;;14.21;100.00;100141.53;5021199;28;20110;-72
2023/05/12 00:32:11;;;;;;;494.53;77.50;;;;;;;14.22;100.00;100068.00;5037638;28;20079;-74
2023/05/12 00:34:37;;;;;;;12.40;5.40;;;;;;;14.31;100.00;100029.22;5021182;28;20029;-73
2023/05/12 00:37:02;;;;;;;157.50;37.13;;;;;;;14.26;100.00;99977.16;5019250;28;20401;-72
2023/05/12 00:39:28;;;;;;;77.37;13.00;;;;;;;14.27;100.00;99978.81;5025347;28;20025;-73
2023/05/12 00:41:55;;;;;;;8.33;6.53;;;;;;;14.23;100.00;99994.47;5015558;28;21030;-71
2023/05/12 00:44:21;;;;;;;6.65;4.90;;;;;;;14.24;100.00;100025.69;5034711;28;20048;-71
2023/05/12 00:46:46;;;;;;;190.43;33.72;;;;;;;14.20;100.00;100056.66;5004323;28;20018;-73
2023/05/12 00:49:12;;;;;;;14.23;8.80;;;;;;;14.18;100.00;100058.72;5019651;28;20424;-73
2023/05/12 00:51:38;;;;;;;7.28;5.45;;;;;;;14.19;100.00;100079.16;5020854;28;20124;-73
2023/05/12 00:54:04;;;;;;;10.52;9.50;;;;;;;14.08;100.00;100056.41;5020077;28;20033;-70
2023/05/12 00:56:34;;;;;;;18.73;13.47;;;;;;;14.06;100.00;100116.69;5022521;28;20037;-71
2023/05/12 00:59:00;;;;;;;8.25;5.28;;;;;;;14.06;100.00;100105.97;5020552;28;20284;-74
2023/05/12 01:01:25;;;;;;;455.67;61.50;;;;;;;14.02;100.00;100083.22;5021048;28;20387;-72
2023/05/12 01:03:53;;;;;;;11.48;5.65;;;;;;;13.95;100.00;100093.94;5020874;28;20127;-73
2023/05/12 01:06:28;;;;;;;177.97;35.93;;;;;;;13.96;100.00;100145.78;5020282;28;20124;-73
2023/05/12 01:08:54;;;;;;;13.45;9.68;;;;;;;13.97;100.00;100147.41;5019727;28;20098;-72
2023/05/12 01:11:21;;;;;;;53.28;20.92;;;;;;;14.04;100.00;100137.53;5036883;28;20033;-73
2023/05/12 01:13:47;;;;;;;17.65;9.85;;;;;;;13.99;100.00;100089.00;5019775;28;20045;-73
2023/05/12 01:16:15;;;;;;;8.60;7.15;;;;;;;13.98;100.00;100135.63;5033026;28;20030;-73
2023/05/12 01:18:48;;;;;;;128.95;49.22;;;;;;;13.89;100.00;100121.59;5004694;28;20514;-73
2023/05/12 01:21:15;;;;;;;8.93;8.05;;;;;;;13.93;100.00;100133.59;5027732;28;20951;-72
2023/05/12 01:23:45;;;;;;;67.78;19.02;;;;;;;13.85;100.00;100129.19;5026828;28;20021;-72
2023/05/12 01:26:10;;;;;;;331.13;46.45;;;;;;;13.83;100.00;100168.81;5031283;28;20037;-71
2023/05/12 01:28:38;;;;;;;59.10;19.60;;;;;;;13.86;100.00;100208.69;5023616;28;20037;-73
2023/05/12 01:31:05;;;;;;;81.10;28.08;;;;;;;13.85;100.00;100150.66;5036482;28;20033;-70
2023/05/12 01:33:33;;;;;;;184.13;28.33;;;;;;;13.77;100.00;100145.47;5032302;28;20060;-72
2023/05/12 01:35:58;;;;;;;33.85;21.52;;;;;;;13.76;100.00;100161.75;5035641;28;20790;-73
2023/05/12 01:38:23;;;;;;;314.97;61.17;;;;;;;13.80;100.00;100154.97;5023025;28;20029;-70
2023/05/12 01:40:49;;;;;;;123.25;41.63;;;;;;;13.77;100.00;100158.06;5039760;28;20052;-72
2023/05/12 01:43:15;;;;;;;129.57;24.58;;;;;;;13.73;100.00;100171.03;5022921;28;20036;-74
2023/05/12 01:45:41;;;;;;;55.43;36.80;;;;;;;13.77;100.00;100184.88;5020222;28;20037;-73
2023/05/12 01:48:06;;;;;;;169.93;29.20;;;;;;;13.75;100.00;100136.78;5019226;28;20024;-73
2023/05/12 01:50:31;;;;;;;99.67;23.23;;;;;;;13.70;100.00;100148.09;5024537;28;20511;-73
2023/05/12 01:52:58;;;;;;;258.67;45.25;;;;;;;13.67;100.00;100198.63;5038222;28;20132;-72
2023/05/12 01:55:23;;;;;;;18.90;10.60;;;;;;;13.65;100.00;100189.94;5035930;28;20603;-73
2023/05/12 01:57:52;;;;;;;18.20;13.00;;;;;;;13.62;100.00;100219.84;5024855;28;20085;-73
2023/05/12 02:00:18;;;;;;;51.38;22.65;;;;;;;13.71;100.00;100229.41;5007746;28;20041;-72
2023/05/12 02:02:46;;;;;;;14.27;7.55;;;;;;;13.69;100.00;100228.78;5024496;28;20021;-73
2023/05/12 02:05:12;;;;;;;9.45;7.18;;;;;;;13.62;100.00;100226.03;5034555;28;20068;-73
2023/05/12 02:07:38;;;;;;;206.77;31.10;;;;;;;13.64;100.00;100236.56;5026719;28;20064;-74
2023/05/12 02:10:05;;;;;;;11.20;7.00;;;;;;;13.68;100.00;100237.84;5005263;28;20064;-71
2023/05/12 02:12:30;;;;;;;41.40;22.05;;;;;;;13.64;100.00;100225.84;5030171;28;20033;-72
2023/05/12 02:14:56;;;;;;;9.33;8.27;;;;;;;13.71;100.00;100213.31;5040109;28;20033;-73
2023/05/12 02:17:23;;;;;;;17.70;8.53;;;;;;;13.69;100.00;100199.25;5023700;28;20389;-73
2023/05/12 02:19:49;;;;;;;388.13;55.45;;;;;;;13.67;100.00;100190.56;5021836;28;20141;-70
2023/05/12 02:22:14;;;;;;;189.60;62.00;;;;;;;13.68;100.00;100189.56;5034531;28;20100;-72
2023/05/12 02:24:41;;;;;;;13.48;10.55;;;;;;;13.63;100.00;100141.06;5023495;28;20040;-74
2023/05/12 02:27:06;;;;;;;138.00;22.50;;;;;;;13.67;100.00;100182.53;5004817;28;20025;-74
2023/05/12 02:29:32;;;;;;;6.67;5.50;;;;;;;13.65;100.00;100201.53;5024777;28;20123;-73
2023/05/12 02:31:58;;;;;;;8.55;5.70;;;;;;;13.60;100.00;100170.94;5037506;28;20029;-74
2023/05/12 02:34:23;;;;;;;22.67;16.58;;;;;;;13.64;100.00;100182.94;5035129;28;20041;-70
2023/05/12 02:36:49;;;;;;;13.43;6.23;;;;;;;13.69;100.00;100150.97;5022119;28;20488;-72
2023/05/12 02:39:15;;;;;;;125.90;34.40;;;;;;;13.68;100.00;100130.56;5020342;28;20129;-73
2023/05/12 02:41:40;;;;;;;15.73;10.37;;;;;;;13.72;100.00;100148.75;5023412;28;20443;-73
2023/05/12 02:44:06;;;;;;;18.23;12.17;;;;;;;13.67;100.00;100166.44;5020002;28;20655;-74
2023/05/12 02:46:31;;;;;;;17.52;15.77;;;;;;;13.64;100.00;100172.19;5024995;28;20037;-73
2023/05/12 02:48:57;;;;;;;77.37;23.70;;;;;;;13.57;100.00;100145.34;5022084;28;20037;-73
2023/05/12 02:51:22;;;;;;;52.27;24.43;;;;;;;13.60;100.00;100165.56;5006605;28;20030;-73
2023/05/12 02:53:47;;;;;;;620.13;81.00;;;;;;;13.56;100.00;100137.50;5019765;28;20140;-74
2023/05/12 02:56:13;;;;;;;13.83;10.33;;;;;;;13.50;100.00;100188.19;5021678;28;20097;-73
2023/05/12 02:58:38;;;;;;;80.37;29.00;;;;;;;13.47;100.00;100215.41;5024103;28;20071;-70
2023/05/12 03:01:04;;;;;;;41.80;12.90;;;;;;;13.64;100.00;100282.19;5020893;28;20369;-71
2023/05/12 03:03:29;;;;;;;46.35;20.00;;;;;;;13.48;100.00;100243.88;5022749;28;20120;-73
2023/05/12 03:05:55;;;;;;;292.85;44.28;;;;;;;13.37;100.00;100275.75;5021087;28;20484;-71
2023/05/12 03:08:21;;;;;;;29.17;21.10;;;;;;;13.38;100.00;100320.31;5018656;28;20038;-73
2023/05/12 03:10:46;;;;;;;9.52;7.10;;;;;;;13.37;100.00;100369.56;5019455;28;20036;-73
2023/05/12 03:13:12;;;;;;;11.02;7.13;;;;;;;13.41;100.00;100358.28;5033189;28;20042;-74
2023/05/12 03:15:38;;;;;;;13.97;10.43;;;;;;;13.47;100.00;100362.91;5023195;28;20025;-73
2023/05/12 03:18:03;;;;;;;26.63;15.17;;;;;;;13.48;100.00;100359.19;5003968;28;20049;-71
2023/05/12 03:20:29;;;;;;;154.40;47.97;;;;;;;13.45;100.00;100287.16;5022461;28;20025;-72
2023/05/12 03:22:54;;;;;;;9.43;7.30;;;;;;;13.41;100.00;100253.72;5024135;28;20037;-73
2023/05/12 03:25:20;;;;;;;10.03;7.93;;;;;;;13.45;100.00;100265.72;5038595;28;20078;-72
2023/05/12 03:27:45;;;;;;;9.43;5.03;;;;;;;13.37;100.00;100289.16;5023786;28;20059;-73
2023/05/12 03:30:11;;;;;;;8.65;6.28;;;;;;;13.40;100.00;100310.22;5037280;28;20118;-73
2023/05/12 03:32:40;;;;;;;9.30;6.03;;;;;;;13.37;100.00;100265.00;5021276;28;20425;-73
2023/05/12 03:35:08;;;;;;;477.88;71.43;;;;;;;13.28;100.00;100283.94;5036503;28;20473;-74
2023/05/12 03:37:33;;;;;;;13.75;10.18;;;;;;;13.29;100.00;100360.63;5025623;28;20179;-70
2023/05/12 03:39:59;;;;;;;7.47;6.57;;;;;;;13.19;100.00;100389.56;5019972;28;20033;-71
2023/05/12 03:42:27;;;;;;;293.73;67.77;;;;;;;13.17;100.00;100347.91;5038421;28;20029;-73
2023/05/12 03:44:52;;;;;;;8.32;6.65;;;;;;;13.17;100.00;100355.94;5019350;28;20287;-73
2023/05/12 03:47:18;;;;;;;17.27;13.27;;;;;;;13.19;100.00;100427.09;5033654;28;20495;-71
2023/05/12 03:49:44;;;;;;;10.80;6.83;;;;;;;13.21;100.00;100400.13;5018871;28;20576;-71
2023/05/12 03:52:09;;;;;;;321.20;62.15;;;;;;;13.07;100.00;100358.94;5034193;28;20022;-73
2023/05/12 03:54:34;;;;;;;26.30;11.87;;;;;;;13.07;100.00;100375.00;5023091;28;20535;-72
2023/05/12 03:57:00;;;;;;;8.83;6.73;;;;;;;13.12;100.00;100398.56;5036412;28;20497;-73
2023/05/12 03:59:25;;;;;;;8.20;6.70;;;;;;;13.15;100.00;100392.81;5023068;28;20041;-72
2023/05/12 04:01:52;;;;;;;12.57;10.60;;;;;;;13.17;100.00;100431.81;5020984;28;20033;-73
2023/05/12 04:04:18;;;;;;;8.77;7.15;;;;;;;13.19;100.00;100420.91;5020535;28;20279;-74
2023/05/12 04:06:43;;;;;;;175.85;82.60;;;;;;;13.22;100.00;100405.28;5018450;28;20033;-71
2023/05/12 04:09:09;;;;;;;9.50;6.67;;;;;;;13.32;100.00;100390.78;5003231;28;20473;-71
2023/05/12 04:11:35;;;;;;;;;;;;;;;13.44;100.00;100349.88;5025167;28;20073;-74
2023/05/12 04:14:01;;;;;;;14.35;6.85;;;;;;;13.41;100.00;100296.63;5018549;28;19913;-73
2023/05/12 04:16:27;;;;;;;378.08;61.25;;;;;;;13.41;100.00;100264.44;5038034;28;20156;-74
2023/05/12 04:18:52;;;;;;;19.30;11.30;;;;;;;13.39;100.00;100273.69;5022016;28;20171;-72
2023/05/12 04:21:17;;;;;;;8.37;7.53;;;;;;;13.47;100.00;100265.53;5033708;28;20024;-73
2023/05/12 04:23:43;;;;;;;9.05;5.85;;;;;;;13.54;100.00;100257.56;5020916;28;20029;-70
2023/05/12 04:26:09;;;;;;;70.10;11.40;;;;;;;13.53;100.00;100288.88;5031723;28;20025;-74
2023/05/12 04:28:35;;;;;;;8.82;5.25;;;;;;;13.66;100.00;100299.72;5022481;28;20044;-72
2023/05/12 04:31:04;;;;;;;9.65;7.75;;;;;;;13.73;100.00;100345.41;5018967;28;20058;-73
2023/05/12 04:33:30;;;;;;;14.23;6.53;;;;;;;13.79;100.00;100228.41;5004343;28;20030;-73
2023/05/12 04:35:56;;;;;;;11.10;6.45;;;;;;;13.94;100.00;100242.56;5019227;28;20068;-73
2023/05/12 04:38:22;;;;;;;9.30;5.70;;;;;;;14.06;100.00;100321.50;5037650;28;20104;-72
2023/05/12 04:40:47;;;;;;;327.27;46.53;;;;;;;13.98;100.00;100141.00;5018055;28;20030;-73
2023/05/12 04:43:13;;;;;;;124.22;17.08;;;;;;;14.05;100.00;100075.63;5015064;28;20140;-73
2023/05/12 04:45:38;;;;;;;19.97;14.43;;;;;;;14.19;100.00;100079.16;5020793;28;20509;-70
2023/05/12 04:48:04;;;;;;;9.00;6.97;;;;;;;14.23;100.00;100058.91;5015774;28;20475;-71
2023/05/12 04:50:29;;;;;;;6.00;5.32;;;;;;;14.15;100.00;100046.53;5005251;28;20124;-71
2023/05/12 04:52:55;;;;;;;7.80;5.33;;;;;;;14.18;100.00;100080.19;5019820;28;20432;-72
2023/05/12 04:55:21;;;;;;;8.20;5.72;;;;;;;14.29;100.00;100144.03;5023379;28;20033;-72
2023/05/12 04:57:47;;;;;;;;;;;;;;;14.05;100.00;100064.88;5016010;28;20109;-72
2023/05/12 05:00:13;;;;;;;;;;;;;;;14.07;100.00;100110.28;5026982;28;20890;-70
2023/05/12 05:02:40;;;;;;;;;;;;;;;14.19;100.00;100240.25;5013725;28;20380;-72
2023/05/12 05:05:06;;;;;;;8.65;5.45;;;;;;;14.04;100.00;100173.25;5030970;28;20415;-73
2023/05/12 05:07:31;;;;;;;11.30;6.93;;;;;;;14.01;100.00;100221.13;5008793;28;20053;-73
2023/05/12 05:09:57;;;;;;;18.30;6.73;;;;;;;14.06;100.00;100238.31;5018939;28;20033;-72
2023/05/12 05:12:23;;;;;;;11.43;6.77;;;;;;;14.11;100.00;100363.88;5037449;28;20041;-70
2023/05/12 05:14:48;;;;;;;16.85;13.30;;;;;;;14.07;100.00;100418.97;5007452;28;20735;-73
2023/05/12 05:17:14;;;;;;;18.73;16.87;;;;;;;13.92;100.00;100532.59;5023954;28;20082;-73
2023/05/12 05:19:39;;;;;;;24.90;22.70;;;;;;;13.89;100.00;100608.13;5025583;28;20025;-72
2023/05/12 05:22:05;;;;;;;15.90;13.77;;;;;;;13.75;100.00;100504.34;5022650;28;20056;-73
2023/05/12 05:24:31;;;;;;;38.92;35.13;;;;;;;13.70;100.00;100555.03;5026103;28;20056;-73
2023/05/12 05:26:57;;;;;;;25.40;21.85;;;;;;;13.64;100.00;100577.25;5041198;28;20650;-74
2023/05/12 05:29:22;;;;;;;448.10;311.55;;;;;;;13.61;100.00;100663.47;5039677;28;20036;-74
2023/05/12 05:31:48;;;;;;;222.55;159.13;;;;;;;13.69;100.00;100813.59;5033677;28;20038;-72
2023/05/12 05:34:13;;;;;;;63.63;57.23;;;;;;;13.65;100.00;100710.34;5015899;28;20052;-72
2023/05/12 05:36:39;;;;;;;33.93;29.43;;;;;;;13.81;100.00;100717.38;5017271;28;20038;-71
2023/05/12 05:39:04;;;;;;;26.63;24.23;;;;;;;13.90;100.00;100714.44;5037675;28;20026;-72
2023/05/12 05:41:30;;;;;;;19.50;15.70;;;;;;;14.03;100.00;100766.66;5032040;28;20438;-72
2023/05/12 05:43:55;;;;;;;16.35;9.98;;;;;;;14.12;100.00;100620.56;5021368;28;20018;-71
2023/05/12 05:46:21;;;;;;;10.03;8.17;;;;;;;14.21;100.00;100589.06;5024227;28;20041;-72
2023/05/12 05:48:46;;;;;;;9.40;6.85;;;;;;;14.32;100.00;100546.41;5027099;28;20043;-72
2023/05/12 05:51:13;;;;;;;182.77;47.15;;;;;;;14.43;100.00;100536.19;5038002;28;20528;-69
2023/05/12 05:53:39;;;;;;;10.30;5.63;;;;;;;14.53;100.00;100372.84;5008886;28;20033;-70
2023/05/12 05:56:05;;;;;;;8.70;5.80;;;;;;;14.64;100.00;100425.22;5042718;28;20033;-70
2023/05/12 05:58:30;;;;;;;9.00;5.57;;;;;;;14.69;100.00;100337.63;5035153;28;20032;-71
2023/05/12 06:00:59;;;;;;;8.52;5.97;;;;;;;14.86;100.00;100431.34;5042100;28;20171;-71
2023/05/12 06:03:25;;;;;;;12.53;8.70;;;;;;;14.98;100.00;100405.56;5024663;28;20112;-71
2023/05/12 06:05:50;;;;;;;13.05;5.30;;;;;;;15.06;100.00;100375.81;5028934;28;20036;-71
2023/05/12 06:08:15;;;;;;;12.80;5.13;;;;;;;15.23;99.12;100231.06;5039117;28;20029;-70
2023/05/12 06:10:41;;;;;;;6.10;4.53;;;;;;;15.79;99.45;100364.44;5029038;28;20037;-71
2023/05/12 06:13:06;;;;;;;9.27;5.37;;;;;;;16.11;95.14;100162.66;5026504;28;20029;-72
2023/05/12 06:15:32;;;;;;;11.07;4.70;;;;;;;16.31;92.70;100039.50;5030870;28;20033;-71
2023/05/12 06:17:58;;;;;;;11.27;4.57;;;;;;;16.81;91.90;100108.84;5033468;28;20038;-70
2023/05/12 06:20:24;;;;;;;6.70;4.87;;;;;;;17.15;89.82;100017.72;5024936;28;20533;-71
2023/05/12 06:22:49;;;;;;;10.43;4.95;;;;;;;17.55;86.98;99926.31;5023669;28;20348;-72
2023/05/12 06:25:16;;;;;;;7.70;4.57;;;;;;;17.92;84.65;99807.44;5039266;28;20132;-72
2023/05/12 06:27:41;;;;;;;7.30;5.20;;;;;;;18.23;83.29;99743.31;5007100;28;20659;-71
2023/05/12 06:30:08;;;;;;;11.87;4.67;;;;;;;18.63;82.61;99815.50;5024571;28;20555;-71
2023/05/12 06:32:33;;;;;;;7.97;4.40;;;;;;;19.53;79.52;99795.91;5025891;28;20083;-72
2023/05/12 06:34:59;;;;;;;9.90;4.70;;;;;;;20.51;76.35;99730.44;5022681;28;20081;-72
2023/05/12 06:37:24;;;;;;;9.50;4.50;;;;;;;21.19;72.39;99480.41;5023046;28;20392;-72
2023/05/12 06:39:49;;;;;;;9.50;5.03;;;;;;;21.14;67.34;98929.53;5024382;28;20090;-72
2023/05/12 06:42:15;;;;;;;10.30;4.23;;;;;;;20.88;66.54;98983.84;5024132;28;20116;-71
2023/05/12 06:44:41;;;;;;;10.18;4.03;;;;;;;21.99;66.96;99431.31;5021932;28;20112;-71
2023/05/12 06:47:06;;;;;;;8.05;4.25;;;;;;;22.33;62.27;98943.06;5024135;28;20024;-71
2023/05/12 06:49:34;;;;;;;7.32;4.20;;;;;;;20.06;62.66;98406.84;5027390;28;20687;-72
2023/05/12 06:52:00;;;;;;;6.25;4.22;;;;;;;20.31;65.37;99049.97;5028942;28;20041;-72
2023/05/12 06:54:25;;;;;;;5.00;3.67;;;;;;;21.38;65.27;99370.31;5042074;28;20041;-71
2023/05/12 06:56:51;;;;;;;10.10;4.40;;;;;;;20.18;62.70;98647.59;5024398;28;20389;-71
2023/05/12 06:59:16;;;;;;;5.90;3.60;;;;;;;21.32;64.73;99374.06;5037098;28;20054;-72
2023/05/12 07:01:41;;;;;;;9.15;3.85;;;;;;;20.02;63.27;98736.22;5021856;28;20087;-71
2023/05/12 07:04:07;;;;;;;9.75;4.85;;;;;;;19.90;64.11;98922.53;5019119;28;20030;-71
2023/05/12 07:06:33;;;;;;;9.73;3.77;;;;;;;20.47;64.95;99306.41;5026599;28;20500;-72
2023/05/12 07:08:59;;;;;;;11.02;4.28;;;;;;;19.43;64.68;98972.16;5024210;28;20501;-72
2023/05/12 07:11:24;;;;;;;7.57;3.85;;;;;;;20.04;64.23;99153.88;5023792;28;20029;-72
2023/05/12 07:13:50;;;;;;;7.87;4.50;;;;;;;20.87;62.87;99235.28;5021203;28;20136;-71
2023/05/12 07:16:17;;;;;;;9.73;3.95;;;;;;;21.01;62.64;99265.44;5038813;28;20287;-71
2023/05/12 07:18:42;;;;;;;9.73;3.95;;;;;;;21.84;60.94;99231.84;5005539;28;20052;-72
2023/05/12 07:21:08;;;;;;;5.20;4.07;;;;;;;21.47;59.42;98907.22;5023657;28;20077;-72
2023/05/12 07:23:34;;;;;;;8.55;3.90;;;;;;;21.78;59.38;99048.28;5021103;28;20730;-71
2023/05/12 07:26:02;;;;;;;5.25;4.05;;;;;;;22.25;58.47;99095.91;5021836;28;20033;-71
2023/05/12 07:28:34;;;;;;;7.53;3.40;;;;;;;22.32;56.76;98897.97;5020804;28;20118;-71
2023/05/12 07:30:59;;;;;;;7.88;4.32;;;;;;;20.93;57.01;98449.53;5021724;28;20033;-72
2023/05/12 07:33:25;;;;;;;6.53;4.00;;;;;;;20.06;57.51;98306.66;5025941;28;20037;-72
2023/05/12 07:35:50;;;;;;;6.63;3.60;;;;;;;20.51;59.53;98862.13;5023009;28;20636;-71
2023/05/12 07:38:16;;;;;;;9.73;3.90;;;;;;;20.55;59.20;98826.06;5022621;28;20037;-71
2023/05/12 07:40:41;;;;;;;12.63;4.20;;;;;;;21.28;60.74;99357.53;5021422;28;20053;-72
2023/05/12 07:43:07;;;;;;;6.20;4.40;;;;;;;22.03;58.80;99274.78;5018383;28;20080;-71
2023/05/12 07:45:32;;;;;;;12.80;3.50;;;;;;;22.07;57.12;99028.56;5023649;28;20292;-71
2023/05/12 07:47:57;;;;;;;5.90;3.50;;;;;;;22.59;55.97;99023.66;5024093;28;20037;-72
2023/05/12 07:50:23;;;;;;;8.90;3.57;;;;;;;22.02;55.81;98814.75;5036635;28;20048;-72
2023/05/12 07:52:50;;;;;;;7.57;3.67;;;;;;;21.52;57.25;98924.53;5023020;28;20077;-72
2023/05/12 07:55:17;;;;;;;11.63;3.63;;;;;;;22.09;58.09;99266.34;5023446;28;20037;-72
2023/05/12 07:57:43;;;;;;;6.97;3.60;;;;;;;22.31;56.97;99168.19;5023594;28;20068;-72
2023/05/12 08:00:10;;;;;;;7.65;3.17;;;;;;;22.27;56.72;99120.09;5022051;28;20061;-72
2023/05/12 08:02:42;;;;;;;10.38;3.08;;;;;;;23.26;56.86;99490.28;5023097;28;20025;-71
2023/05/12 08:05:09;;;;;;;7.70;3.42;;;;;;;22.47;55.37;98942.44;5021798;28;20041;-72
2023/05/12 08:07:36;;;;;;;8.68;3.67;;;;;;;22.49;54.66;98855.97;5021116;28;20035;-72
2023/05/12 08:10:05;;;;;;;4.28;3.40;;;;;;;22.80;54.35;98943.50;5021667;28;20056;-72
2023/05/12 08:12:31;;;;;;;4.35;3.22;;;;;;;22.73;53.70;98851.38;5023500;28;20029;-72
2023/05/12 08:14:56;;;;;;;6.95;3.10;;;;;;;22.46;52.68;98625.44;5021116;28;20499;-71
2023/05/12 08:17:21;;;;;;;4.80;3.33;;;;;;;22.31;52.70;98605.50;5023032;28;20116;-71
2023/05/12 08:19:47;;;;;;;5.87;3.07;;;;;;;22.03;52.51;98446.06;5022914;28;20677;-71
2023/05/12 08:22:12;;;;;;;7.47;4.00;;;;;;;22.85;53.19;98956.22;5021421;28;20221;-71
2023/05/12 08:24:37;;;;;;;9.00;3.30;;;;;;;23.23;51.97;98877.50;5020633;28;20083;-72
2023/05/12 08:27:03;;;;;;;9.97;3.50;;;;;;;22.63;50.75;98386.44;5022797;28;20034;-72
2023/05/12 08:29:28;;;;;;;5.18;3.08;;;;;;;23.00;51.69;98784.69;5020563;28;20385;-72
2023/05/12 08:31:54;;;;;;;8.03;3.70;;;;;;;23.02;49.60;98436.91;5022936;28;20060;-72
2023/05/12 08:34:19;;;;;;;6.68;3.35;;;;;;;23.37;48.42;98380.16;5020216;28;20037;-72
2023/05/12 08:36:45;;;;;;;3.80;3.00;;;;;;;23.76;48.33;98458.63;5020971;28;20060;-71
2023/05/12 08:39:11;;;;;;;8.52;3.08;;;;;;;24.06;48.95;98704.34;5021039;28;20124;-71
2023/05/12 08:41:44;;;;;;;5.38;3.35;;;;;;;24.34;47.99;98620.63;5022705;28;20366;-72
2023/05/12 08:44:13;;;;;;;7.55;3.05;;;;;;;24.70;47.80;98725.47;5022088;28;20493;-72
2023/05/12 08:46:38;;;;;;;4.80;2.70;;;;;;;23.51;44.29;97585.88;5025855;28;20029;-72
2023/05/12 08:49:05;;;;;;;7.60;2.83;;;;;;;24.02;46.04;98297.25;5022602;28;20087;-72
2023/05/12 08:51:32;;;;;;;5.97;2.92;;;;;;;24.20;44.56;98063.75;5023696;28;20049;-71
2023/05/12 08:53:57;;;;;;;5.50;2.83;;;;;;;23.31;43.85;97693.50;5020269;28;20033;-72
2023/05/12 08:56:24;;;;;;;5.82;2.97;;;;;;;23.39;43.88;97740.91;5023599;28;20522;-73
2023/05/12 08:58:50;;;;;;;5.20;3.30;;;;;;;23.67;43.98;97977.50;5004792;28;20144;-72
2023/05/12 09:01:16;;;;;;;7.03;3.10;;;;;;;24.35;43.75;98308.69;5022431;28;20097;-72
2023/05/12 09:03:42;;;;;;;;;;;;;;;24.25;41.67;97820.19;5026117;28;20029;-72
2023/05/12 09:06:10;;;;;;;2.95;2.60;;;;;;;24.33;42.48;98034.75;5031872;28;19920;-71
2023/05/12 09:08:36;;;;;;;9.07;3.30;;;;;;;24.82;41.51;98139.91;5020932;28;20049;-72
2023/05/12 09:11:02;;;;;;;5.13;2.40;;;;;;;25.13;40.64;98070.72;5019924;28;20022;-72
2023/05/12 09:13:49;;;;;;;8.30;3.15;;;;;;;23.65;38.34;96939.53;5021519;28;20048;-72
2023/05/12 09:16:21;;;;;;;4.70;3.10;;;;;;;23.23;40.64;97527.50;5020923;28;20627;-72
2023/05/12 09:18:51;;;;;;;9.07;2.50;;;;;;;24.25;40.00;97856.41;5019886;28;20037;-72
2023/05/12 09:21:17;;;;;;;7.38;2.92;;;;;;;23.70;40.27;97645.41;5022220;28;20065;-72
2023/05/12 09:23:57;;;;;;;5.93;3.00;;;;;;;24.09;40.74;97956.16;5019423;28;20061;-72
2023/05/12 09:26:25;;;;;;;6.82;2.92;;;;;;;25.04;39.67;98190.81;5022333;28;20144;-73
2023/05/12 09:29:02;;;;;;;7.03;2.80;;;;;;;23.02;39.93;97236.31;5019746;28;20057;-72
2023/05/12 09:31:27;;;;;;;5.80;3.15;;;;;;;24.23;40.65;98150.31;5016805;28;20037;-71
2023/05/12 09:33:53;;;;;;;7.17;3.23;;;;;;;25.15;40.12;98321.56;5019463;28;20364;-73
2023/05/12 09:36:22;;;;;;;5.40;2.93;;;;;;;25.22;39.20;98119.88;5022079;28;20041;-72
2023/05/12 09:39:03;;;;;;;8.02;2.75;;;;;;;25.50;38.42;98120.31;5023266;28;20264;-71
2023/05/12 09:41:39;;;;;;;5.78;3.25;;;;;;;25.56;39.39;98277.44;5015017;28;20085;-74
2023/05/12 09:44:05;;;;;;;;;;;;;;;25.72;38.77;98175.88;5019846;28;20030;-72
2023/05/12 09:46:31;;;;;;;9.15;3.30;;;;;;;25.57;37.78;97934.06;5034904;28;20015;-72
2023/05/12 09:48:57;;;;;;;6.63;2.63;;;;;;;25.46;37.06;97777.97;5019862;28;20452;-72
2023/05/12 09:51:23;;;;;;;6.35;3.05;;;;;;;24.33;36.09;97069.75;5037050;28;20144;-72
2023/05/12 09:53:49;;;;;;;6.32;3.17;;;;;;;23.14;37.19;96913.44;5019947;28;20120;-72
2023/05/12 09:56:16;;;;;;;9.18;2.83;;;;;;;22.81;36.87;96774.78;5022400;28;20085;-71
2023/05/12 09:58:48;;;;;;;7.47;2.90;;;;;;;23.35;37.37;97301.75;5029539;28;20132;-72
2023/05/12 10:01:18;;;;;;;8.27;2.72;;;;;;;23.84;39.11;97897.78;5039363;28;20388;-73
2023/05/12 10:04:06;;;;;;;4.63;3.15;;;;;;;24.19;39.80;98149.38;5023862;28;20109;-72
2023/05/12 10:06:39;;;;;;;8.93;2.88;;;;;;;25.21;38.83;98366.72;5018424;28;20053;-73
2023/05/12 10:09:24;;;;;;;5.13;2.40;;;;;;;25.63;36.64;98042.81;5021862;28;20154;-71
2023/05/12 10:11:51;;;;;;;5.60;3.15;;;;;;;26.24;36.46;98258.53;5023706;28;20117;-72
2023/05/12 10:14:16;;;;;;;3.58;2.22;;;;;;;26.17;35.63;98044.97;5024928;28;20030;-72
2023/05/12 10:16:44;;;;;;;4.45;2.97;;;;;;;26.13;36.47;98179.94;5025156;28;20112;-72
2023/05/12 10:19:10;;;;;;;4.75;2.70;;;;;;;26.34;36.12;98093.31;5027275;28;20147;-73
2023/05/12 10:21:37;;;;;;;7.68;3.50;;;;;;;26.13;35.33;97828.09;5028809;28;20044;-72
2023/05/12 10:24:03;;;;;;;5.45;3.13;;;;;;;26.52;34.79;97907.97;5022736;28;20136;-73
2023/05/12 10:26:31;;;;;;;4.07;2.33;;;;;;;26.39;34.88;97877.06;5025174;28;20145;-73
2023/05/12 10:28:57;;;;;;;4.38;3.05;;;;;;;27.00;34.17;97968.72;5025511;28;20036;-71
2023/05/12 10:31:26;;;;;;;4.72;2.60;;;;;;;26.67;34.00;97756.88;5024658;28;20140;-72
2023/05/12 10:33:59;;;;;;;7.03;2.55;;;;;;;27.64;33.50;98123.53;5023067;28;20118;-73
2023/05/12 10:36:25;;;;;;;8.07;2.60;;;;;;;27.80;32.68;97927.09;5024645;28;20037;-72
2023/05/12 10:38:51;;;;;;;4.35;2.60;;;;;;;27.24;32.38;97511.44;5022500;28;20310;-72
2023/05/12 10:41:28;;;;;;;4.47;2.70;;;;;;;26.30;32.49;97261.88;5040071;28;20035;-72
2023/05/12 10:43:53;;;;;;;9.48;2.95;;;;;;;26.21;33.19;97372.53;5039857;28;20041;-71
2023/05/12 10:46:21;;;;;;;4.37;2.47;;;;;;;26.83;33.26;97721.44;5027532;28;20029;-73
2023/05/12 10:48:53;;;;;;;6.47;2.63;;;;;;;27.01;31.98;97521.34;5021880;28;20045;-72
2023/05/12 10:51:21;;;;;;;5.00;2.60;;;;;;;24.95;33.97;97146.84;5021498;28;20060;-72
2023/05/12 10:53:51;;;;;;;6.05;2.42;;;;;;;26.59;32.73;97651.09;5019693;28;20065;-72
2023/05/12 10:56:25;;;;;;;8.02;2.90;;;;;;;26.94;32.05;97694.38;5024281;28;20513;-73
2023/05/12 10:59:16;;;;;;;8.67;3.10;;;;;;;26.54;31.24;97216.41;5024623;28;20183;-72
2023/05/12 11:01:55;;;;;;;5.25;2.40;;;;;;;25.78;28.97;96398.75;5020859;28;20079;-72
2023/05/12 11:04:21;;;;;;;4.28;2.60;;;;;;;25.02;30.88;96580.31;5023508;28;20033;-72
2023/05/12 11:06:57;;;;;;;7.97;2.38;;;;;;;25.90;31.41;97232.69;5023862;28;20025;-72
2023/05/12 11:09:23;;;;;;;6.47;2.63;;;;;;;26.04;30.94;97122.19;5023875;28;20456;-72
2023/05/12 11:11:49;;;;;;;4.47;2.95;;;;;;;24.01;31.53;96317.69;5019809;28;20029;-72
2023/05/12 11:14:15;;;;;;;6.22;2.75;;;;;;;24.95;32.62;97195.94;5036570;28;20033;-72
2023/05/12 11:16:43;;;;;;;;;;;;;;;23.80;32.65;96672.03;5006771;28;20033;-73